sensor_id;sensor_type;location;lat;lon;timestamp;temperature;humidity
75010;DHT22;63564;46.840;18.336;2023-01-08T00:00:11;5.11;96.74
75010;DHT22;63564;46.840;18.336;2023-01-08T00:03:12;5.07;96.99
75010;DHT22;63564;46.840;18.336;2023-01-08T00:06:15;5.07;96.94
75010;DHT22;63564;46.840;18.336;2023-01-08T00:09:16;4.98;96.78
75010;DHT22;63564;46.840;18.336;2023-01-08T00:12:17;4.72;97.20
75010;DHT22;63564;46.840;18.336;2023-01-08T00:15:18;4.64;97.56
75010;DHT22;63564;46.840;18.336;2023-01-08T00:18:19;4.52;97.84
75010;DHT22;63564;46.840;18.336;2023-01-08T00:21:19;4.34;98.29
75010;DHT22;63564;46.840;18.336;2023-01-08T00:24:20;4.28;98.58
75010;DHT22;63564;46.840;18.336;2023-01-08T00:27:20;4.25;97.95
75010;DHT22;63564;46.840;18.336;2023-01-08T00:30:21;4.15;98.10
75010;DHT22;63564;46.840;18.336;2023-01-08T00:33:21;4.08;98.41
75010;DHT22;63564;46.840;18.336;2023-01-08T00:36:22;4.01;98.57
75010;DHT22;63564;46.840;18.336;2023-01-08T00:39:22;3.98;98.47
75010;DHT22;63564;46.840;18.336;2023-01-08T00:42:22;4.02;98.42
75010;DHT22;63564;46.840;18.336;2023-01-08T00:45:23;4.15;97.97
75010;DHT22;63564;46.840;18.336;2023-01-08T00:48:23;4.21;98.16
75010;DHT22;63564;46.840;18.336;2023-01-08T00:51:24;4.39;98.08
75010;DHT22;63564;46.840;18.336;2023-01-08T00:54:25;4.31;97.54
75010;DHT22;63564;46.840;18.336;2023-01-08T00:57:26;4.19;97.82
75010;DHT22;63564;46.840;18.336;2023-01-08T01:00:31;4.24;97.69
75010;DHT22;63564;46.840;18.336;2023-01-08T01:03:31;4.11;97.70
75010;DHT22;63564;46.840;18.336;2023-01-08T01:06:32;3.97;97.65
75010;DHT22;63564;46.840;18.336;2023-01-08T01:09:32;4.04;97.47
75010;DHT22;63564;46.840;18.336;2023-01-08T01:12:33;4.19;97.19
75010;DHT22;63564;46.840;18.336;2023-01-08T01:15:33;4.26;96.94
75010;DHT22;63564;46.840;18.336;2023-01-08T01:18:34;4.34;96.94
75010;DHT22;63564;46.840;18.336;2023-01-08T01:21:35;4.45;96.39
75010;DHT22;63564;46.840;18.336;2023-01-08T01:24:35;4.64;96.65
75010;DHT22;63564;46.840;18.336;2023-01-08T01:27:36;5.12;95.87
75010;DHT22;63564;46.840;18.336;2023-01-08T01:30:36;5.46;94.59
75010;DHT22;63564;46.840;18.336;2023-01-08T01:33:36;5.65;93.81
75010;DHT22;63564;46.840;18.336;2023-01-08T01:36:37;5.65;93.40
75010;DHT22;63564;46.840;18.336;2023-01-08T01:39:38;5.58;93.53
75010;DHT22;63564;46.840;18.336;2023-01-08T01:42:38;5.50;93.65
75010;DHT22;63564;46.840;18.336;2023-01-08T01:45:39;5.45;93.78
75010;DHT22;63564;46.840;18.336;2023-01-08T01:48:40;5.42;93.72
75010;DHT22;63564;46.840;18.336;2023-01-08T01:51:45;5.38;93.79
75010;DHT22;63564;46.840;18.336;2023-01-08T01:54:49;5.25;93.89
75010;DHT22;63564;46.840;18.336;2023-01-08T01:57:56;5.29;93.89
75010;DHT22;63564;46.840;18.336;2023-01-08T02:01:08;5.29;93.92
75010;DHT22;63564;46.840;18.336;2023-01-08T02:04:11;5.14;93.97
75010;DHT22;63564;46.840;18.336;2023-01-08T02:07:15;5.07;94.27
75010;DHT22;63564;46.840;18.336;2023-01-08T02:13:28;4.66;94.61
75010;DHT22;63564;46.840;18.336;2023-01-08T02:16:56;4.53;94.81
75010;DHT22;63564;46.840;18.336;2023-01-08T02:20:45;4.55;95.18
75010;DHT22;63564;46.840;18.336;2023-01-08T02:23:43;4.46;94.94
75010;DHT22;63564;46.840;18.336;2023-01-08T02:26:46;4.50;95.10
75010;DHT22;63564;46.840;18.336;2023-01-08T02:29:47;4.56;94.99
75010;DHT22;63564;46.840;18.336;2023-01-08T02:32:48;4.74;95.04
75010;DHT22;63564;46.840;18.336;2023-01-08T02:35:54;4.80;94.68
75010;DHT22;63564;46.840;18.336;2023-01-08T02:42:57;5.31;93.84
75010;DHT22;63564;46.840;18.336;2023-01-08T02:46:00;5.50;93.54
75010;DHT22;63564;46.840;18.336;2023-01-08T02:49:05;5.63;93.20
75010;DHT22;63564;46.840;18.336;2023-01-08T02:52:07;5.87;92.69
75010;DHT22;63564;46.840;18.336;2023-01-08T02:55:10;6.03;91.92
75010;DHT22;63564;46.840;18.336;2023-01-08T02:58:12;6.06;91.88
75010;DHT22;63564;46.840;18.336;2023-01-08T03:01:14;6.20;91.44
75010;DHT22;63564;46.840;18.336;2023-01-08T03:04:21;6.31;90.90
75010;DHT22;63564;46.840;18.336;2023-01-08T03:07:22;6.31;91.09
75010;DHT22;63564;46.840;18.336;2023-01-08T03:10:25;6.38;90.64
75010;DHT22;63564;46.840;18.336;2023-01-08T03:13:37;6.48;90.24
75010;DHT22;63564;46.840;18.336;2023-01-08T03:16:48;6.46;90.26
75010;DHT22;63564;46.840;18.336;2023-01-08T03:19:53;6.56;90.01
75010;DHT22;63564;46.840;18.336;2023-01-08T03:22:55;6.55;90.02
75010;DHT22;63564;46.840;18.336;2023-01-08T03:25:57;6.68;89.31
75010;DHT22;63564;46.840;18.336;2023-01-08T03:29:00;6.73;89.19
75010;DHT22;63564;46.840;18.336;2023-01-08T03:32:04;6.76;89.34
75010;DHT22;63564;46.840;18.336;2023-01-08T03:35:08;6.83;88.61
75010;DHT22;63564;46.840;18.336;2023-01-08T03:38:14;6.69;89.40
75010;DHT22;63564;46.840;18.336;2023-01-08T03:41:18;6.77;89.07
75010;DHT22;63564;46.840;18.336;2023-01-08T03:44:20;6.82;89.15
75010;DHT22;63564;46.840;18.336;2023-01-08T03:47:21;6.82;89.05
75010;DHT22;63564;46.840;18.336;2023-01-08T03:50:26;6.79;89.55
75010;DHT22;63564;46.840;18.336;2023-01-08T03:53:27;6.72;89.41
75010;DHT22;63564;46.840;18.336;2023-01-08T03:56:28;6.79;88.92
75010;DHT22;63564;46.840;18.336;2023-01-08T03:59:28;6.77;88.97
75010;DHT22;63564;46.840;18.336;2023-01-08T04:02:28;6.75;89.12
75010;DHT22;63564;46.840;18.336;2023-01-08T04:05:29;6.79;89.35
75010;DHT22;63564;46.840;18.336;2023-01-08T04:08:29;6.71;89.41
75010;DHT22;63564;46.840;18.336;2023-01-08T04:11:30;6.75;89.19
75010;DHT22;63564;46.840;18.336;2023-01-08T04:14:30;6.80;88.86
75010;DHT22;63564;46.840;18.336;2023-01-08T04:17:31;6.79;88.79
75010;DHT22;63564;46.840;18.336;2023-01-08T04:20:31;6.93;88.19
75010;DHT22;63564;46.840;18.336;2023-01-08T04:23:32;7.00;87.80
75010;DHT22;63564;46.840;18.336;2023-01-08T04:26:32;7.00;87.86
75010;DHT22;63564;46.840;18.336;2023-01-08T04:29:33;6.94;88.03
75010;DHT22;63564;46.840;18.336;2023-01-08T04:32:33;7.03;87.76
75010;DHT22;63564;46.840;18.336;2023-01-08T04:35:34;7.15;86.95
75010;DHT22;63564;46.840;18.336;2023-01-08T04:38:34;7.21;86.30
75010;DHT22;63564;46.840;18.336;2023-01-08T04:41:34;7.21;86.67
75010;DHT22;63564;46.840;18.336;2023-01-08T04:44:35;7.31;85.87
75010;DHT22;63564;46.840;18.336;2023-01-08T04:47:35;7.27;86.47
75010;DHT22;63564;46.840;18.336;2023-01-08T04:50:36;7.14;86.74
75010;DHT22;63564;46.840;18.336;2023-01-08T04:53:36;7.31;85.88
75010;DHT22;63564;46.840;18.336;2023-01-08T04:56:37;7.31;85.86
75010;DHT22;63564;46.840;18.336;2023-01-08T04:59:38;7.32;85.78
75010;DHT22;63564;46.840;18.336;2023-01-08T05:02:38;7.47;85.27
75010;DHT22;63564;46.840;18.336;2023-01-08T05:05:39;7.39;85.43
75010;DHT22;63564;46.840;18.336;2023-01-08T05:08:39;7.44;85.12
75010;DHT22;63564;46.840;18.336;2023-01-08T05:11:39;7.44;85.26
75010;DHT22;63564;46.840;18.336;2023-01-08T05:14:40;7.51;84.95
75010;DHT22;63564;46.840;18.336;2023-01-08T05:17:40;7.34;85.88
75010;DHT22;63564;46.840;18.336;2023-01-08T05:20:41;7.25;85.67
75010;DHT22;63564;46.840;18.336;2023-01-08T05:23:44;7.28;85.27
75010;DHT22;63564;46.840;18.336;2023-01-08T05:26:45;7.22;85.92
75010;DHT22;63564;46.840;18.336;2023-01-08T05:29:46;7.32;85.15
75010;DHT22;63564;46.840;18.336;2023-01-08T05:32:46;7.35;85.11
75010;DHT22;63564;46.840;18.336;2023-01-08T05:35:47;7.55;84.40
75010;DHT22;63564;46.840;18.336;2023-01-08T05:38:47;7.59;83.96
75010;DHT22;63564;46.840;18.336;2023-01-08T05:41:48;7.61;83.96
75010;DHT22;63564;46.840;18.336;2023-01-08T05:44:48;7.73;83.40
75010;DHT22;63564;46.840;18.336;2023-01-08T05:47:48;7.68;83.47
75010;DHT22;63564;46.840;18.336;2023-01-08T05:50:49;7.62;83.96
75010;DHT22;63564;46.840;18.336;2023-01-08T05:53:49;7.66;83.66
75010;DHT22;63564;46.840;18.336;2023-01-08T05:56:50;7.61;84.33
75010;DHT22;63564;46.840;18.336;2023-01-08T05:59:50;7.58;84.21
75010;DHT22;63564;46.840;18.336;2023-01-08T06:02:50;7.51;84.66
75010;DHT22;63564;46.840;18.336;2023-01-08T06:05:51;7.63;83.89
75010;DHT22;63564;46.840;18.336;2023-01-08T06:08:51;7.52;84.23
75010;DHT22;63564;46.840;18.336;2023-01-08T06:11:51;7.58;84.23
75010;DHT22;63564;46.840;18.336;2023-01-08T06:14:52;7.59;84.26
75010;DHT22;63564;46.840;18.336;2023-01-08T06:17:52;7.49;84.66
75010;DHT22;63564;46.840;18.336;2023-01-08T06:20:53;7.39;84.91
75010;DHT22;63564;46.840;18.336;2023-01-08T06:23:53;7.38;85.12
75010;DHT22;63564;46.840;18.336;2023-01-08T06:26:53;7.28;85.58
75010;DHT22;63564;46.840;18.336;2023-01-08T06:29:54;7.12;86.16
75010;DHT22;63564;46.840;18.336;2023-01-08T06:32:58;7.24;85.67
75010;DHT22;63564;46.840;18.336;2023-01-08T06:36:03;7.25;85.78
75010;DHT22;63564;46.840;18.336;2023-01-08T06:39:05;7.05;86.46
75010;DHT22;63564;46.840;18.336;2023-01-08T06:42:05;7.00;86.69
75010;DHT22;63564;46.840;18.336;2023-01-08T06:45:06;6.72;87.48
75010;DHT22;63564;46.840;18.336;2023-01-08T06:48:07;6.84;86.77
75010;DHT22;63564;46.840;18.336;2023-01-08T06:51:07;6.84;86.60
75010;DHT22;63564;46.840;18.336;2023-01-08T06:54:08;6.93;86.09
75010;DHT22;63564;46.840;18.336;2023-01-08T06:57:08;6.99;85.78
75010;DHT22;63564;46.840;18.336;2023-01-08T07:00:09;7.03;85.46
75010;DHT22;63564;46.840;18.336;2023-01-08T07:03:09;7.08;85.28
75010;DHT22;63564;46.840;18.336;2023-01-08T07:06:18;7.01;85.42
75010;DHT22;63564;46.840;18.336;2023-01-08T07:09:19;7.15;84.98
75010;DHT22;63564;46.840;18.336;2023-01-08T07:12:19;7.30;84.26
75010;DHT22;63564;46.840;18.336;2023-01-08T07:15:19;7.39;83.93
75010;DHT22;63564;46.840;18.336;2023-01-08T07:18:20;7.45;83.45
75010;DHT22;63564;46.840;18.336;2023-01-08T07:21:21;7.41;83.70
75010;DHT22;63564;46.840;18.336;2023-01-08T07:24:22;7.41;84.03
75010;DHT22;63564;46.840;18.336;2023-01-08T07:27:22;7.38;84.11
75010;DHT22;63564;46.840;18.336;2023-01-08T07:30:23;7.47;83.70
75010;DHT22;63564;46.840;18.336;2023-01-08T07:33:23;7.69;82.92
75010;DHT22;63564;46.840;18.336;2023-01-08T07:36:24;7.52;83.98
75010;DHT22;63564;46.840;18.336;2023-01-08T07:39:24;7.47;84.31
75010;DHT22;63564;46.840;18.336;2023-01-08T07:42:24;7.47;84.48
75010;DHT22;63564;46.840;18.336;2023-01-08T07:45:26;7.48;84.42
75010;DHT22;63564;46.840;18.336;2023-01-08T07:48:27;7.44;84.77
75010;DHT22;63564;46.840;18.336;2023-01-08T07:51:27;7.58;84.15
75010;DHT22;63564;46.840;18.336;2023-01-08T07:54:28;7.62;83.98
75010;DHT22;63564;46.840;18.336;2023-01-08T07:57:29;7.76;83.39
75010;DHT22;63564;46.840;18.336;2023-01-08T08:00:29;7.89;82.93
75010;DHT22;63564;46.840;18.336;2023-01-08T08:03:30;7.85;83.24
75010;DHT22;63564;46.840;18.336;2023-01-08T08:06:30;7.98;82.36
75010;DHT22;63564;46.840;18.336;2023-01-08T08:09:31;8.08;82.43
75010;DHT22;63564;46.840;18.336;2023-01-08T08:12:31;8.10;82.41
75010;DHT22;63564;46.840;18.336;2023-01-08T08:15:32;8.21;82.26
75010;DHT22;63564;46.840;18.336;2023-01-08T08:18:33;8.15;82.85
75010;DHT22;63564;46.840;18.336;2023-01-08T08:21:34;8.33;82.12
75010;DHT22;63564;46.840;18.336;2023-01-08T08:24:34;8.55;81.56
75010;DHT22;63564;46.840;18.336;2023-01-08T08:27:35;8.62;81.04
75010;DHT22;63564;46.840;18.336;2023-01-08T08:30:36;8.80;79.87
75010;DHT22;63564;46.840;18.336;2023-01-08T08:33:36;8.96;79.32
75010;DHT22;63564;46.840;18.336;2023-01-08T08:36:37;9.11;78.80
75010;DHT22;63564;46.840;18.336;2023-01-08T08:39:37;9.13;79.16
75010;DHT22;63564;46.840;18.336;2023-01-08T08:42:38;9.38;78.42
75010;DHT22;63564;46.840;18.336;2023-01-08T08:45:38;9.55;77.53
75010;DHT22;63564;46.840;18.336;2023-01-08T08:48:38;9.63;77.46
75010;DHT22;63564;46.840;18.336;2023-01-08T08:51:39;9.65;77.10
75010;DHT22;63564;46.840;18.336;2023-01-08T08:54:39;9.69;76.82
75010;DHT22;63564;46.840;18.336;2023-01-08T08:57:40;9.92;76.05
75010;DHT22;63564;46.840;18.336;2023-01-08T09:00:42;9.97;75.79
75010;DHT22;63564;46.840;18.336;2023-01-08T09:03:42;10.03;76.41
75010;DHT22;63564;46.840;18.336;2023-01-08T09:06:42;10.05;75.80
75010;DHT22;63564;46.840;18.336;2023-01-08T09:09:43;10.24;74.73
75010;DHT22;63564;46.840;18.336;2023-01-08T09:12:43;10.13;75.78
75010;DHT22;63564;46.840;18.336;2023-01-08T09:15:44;10.25;75.38
75010;DHT22;63564;46.840;18.336;2023-01-08T09:18:44;10.23;75.42
75010;DHT22;63564;46.840;18.336;2023-01-08T09:21:46;10.23;75.52
75010;DHT22;63564;46.840;18.336;2023-01-08T09:24:46;10.41;75.00
75010;DHT22;63564;46.840;18.336;2023-01-08T09:27:46;10.54;74.82
75010;DHT22;63564;46.840;18.336;2023-01-08T09:30:47;10.71;74.37
75010;DHT22;63564;46.840;18.336;2023-01-08T09:33:48;10.93;74.07
75010;DHT22;63564;46.840;18.336;2023-01-08T09:36:48;11.06;73.30
75010;DHT22;63564;46.840;18.336;2023-01-08T09:39:49;11.47;72.54
75010;DHT22;63564;46.840;18.336;2023-01-08T09:42:54;12.06;70.54
75010;DHT22;63564;46.840;18.336;2023-01-08T09:45:57;12.44;68.53
75010;DHT22;63564;46.840;18.336;2023-01-08T09:49:03;12.95;67.31
75010;DHT22;63564;46.840;18.336;2023-01-08T09:52:04;13.33;66.01
75010;DHT22;63564;46.840;18.336;2023-01-08T09:55:14;13.47;65.51
75010;DHT22;63564;46.840;18.336;2023-01-08T09:58:23;13.23;66.19
75010;DHT22;63564;46.840;18.336;2023-01-08T10:01:29;13.42;66.02
75010;DHT22;63564;46.840;18.336;2023-01-08T10:04:31;13.62;65.45
75010;DHT22;63564;46.840;18.336;2023-01-08T10:07:33;13.98;64.06
75010;DHT22;63564;46.840;18.336;2023-01-08T10:10:34;13.52;65.49
75010;DHT22;63564;46.840;18.336;2023-01-08T10:13:40;13.78;64.88
75010;DHT22;63564;46.840;18.336;2023-01-08T10:16:50;13.92;64.06
75010;DHT22;63564;46.840;18.336;2023-01-08T10:19:52;14.28;63.42
75010;DHT22;63564;46.840;18.336;2023-01-08T10:22:53;13.62;65.24
75010;DHT22;63564;46.840;18.336;2023-01-08T10:29:15;13.91;64.59
75010;DHT22;63564;46.840;18.336;2023-01-08T10:32:36;13.84;65.27
75010;DHT22;63564;46.840;18.336;2023-01-08T10:35:38;13.85;65.26
75010;DHT22;63564;46.840;18.336;2023-01-08T10:38:55;13.67;66.64
75010;DHT22;63564;46.840;18.336;2023-01-08T10:42:03;13.52;66.69
75010;DHT22;63564;46.840;18.336;2023-01-08T10:45:09;14.26;64.60
75010;DHT22;63564;46.840;18.336;2023-01-08T10:48:16;14.29;63.36
75010;DHT22;63564;46.840;18.336;2023-01-08T10:51:20;14.40;61.93
75010;DHT22;63564;46.840;18.336;2023-01-08T11:07:58;13.83;64.79
75010;DHT22;63564;46.840;18.336;2023-01-08T11:11:01;13.73;65.16
75010;DHT22;63564;46.840;18.336;2023-01-08T11:14:14;13.74;65.12
75010;DHT22;63564;46.840;18.336;2023-01-08T11:17:16;13.62;65.66
75010;DHT22;63564;46.840;18.336;2023-01-08T11:20:36;13.73;65.83
75010;DHT22;63564;46.840;18.336;2023-01-08T11:23:37;13.73;65.63
75010;DHT22;63564;46.840;18.336;2023-01-08T11:26:39;13.71;65.96
75010;DHT22;63564;46.840;18.336;2023-01-08T11:30:15;13.75;65.05
75010;DHT22;63564;46.840;18.336;2023-01-08T11:33:20;13.97;64.95
75010;DHT22;63564;46.840;18.336;2023-01-08T11:36:32;14.02;64.81
75010;DHT22;63564;46.840;18.336;2023-01-08T11:39:36;14.12;63.69
75010;DHT22;63564;46.840;18.336;2023-01-08T11:46:16;14.08;63.44
75010;DHT22;63564;46.840;18.336;2023-01-08T11:49:55;14.11;63.45
75010;DHT22;63564;46.840;18.336;2023-01-08T11:59:45;13.69;65.52
75010;DHT22;63564;46.840;18.336;2023-01-08T12:03:02;13.60;65.57
75010;DHT22;63564;46.840;18.336;2023-01-08T12:19:26;13.87;64.03
75010;DHT22;63564;46.840;18.336;2023-01-08T12:36:10;13.85;65.56
75010;DHT22;63564;46.840;18.336;2023-01-08T12:39:32;13.87;66.02
75010;DHT22;63564;46.840;18.336;2023-01-08T12:42:40;13.91;65.45
75010;DHT22;63564;46.840;18.336;2023-01-08T12:45:47;14.02;65.43
75010;DHT22;63564;46.840;18.336;2023-01-08T12:48:52;14.15;64.85
75010;DHT22;63564;46.840;18.336;2023-01-08T12:52:10;14.12;65.55
75010;DHT22;63564;46.840;18.336;2023-01-08T12:55:29;14.39;64.40
75010;DHT22;63564;46.840;18.336;2023-01-08T13:02:48;14.35;63.99
75010;DHT22;63564;46.840;18.336;2023-01-08T13:05:49;14.59;63.28
75010;DHT22;63564;46.840;18.336;2023-01-08T13:08:54;14.63;62.85
75010;DHT22;63564;46.840;18.336;2023-01-08T13:11:57;14.72;62.77
75010;DHT22;63564;46.840;18.336;2023-01-08T13:14:58;14.72;62.72
75010;DHT22;63564;46.840;18.336;2023-01-08T13:18:25;14.21;63.82
75010;DHT22;63564;46.840;18.336;2023-01-08T13:21:33;14.24;63.81
75010;DHT22;63564;46.840;18.336;2023-01-08T13:24:38;14.17;64.09
75010;DHT22;63564;46.840;18.336;2023-01-08T13:27:40;14.01;64.79
75010;DHT22;63564;46.840;18.336;2023-01-08T13:30:42;13.78;65.41
75010;DHT22;63564;46.840;18.336;2023-01-08T13:33:46;13.73;65.17
75010;DHT22;63564;46.840;18.336;2023-01-08T13:36:55;13.60;65.76
75010;DHT22;63564;46.840;18.336;2023-01-08T13:39:55;13.47;66.16
75010;DHT22;63564;46.840;18.336;2023-01-08T13:42:58;13.43;66.64
75010;DHT22;63564;46.840;18.336;2023-01-08T13:49:09;13.32;66.85
75010;DHT22;63564;46.840;18.336;2023-01-08T13:55:37;13.50;65.72
75010;DHT22;63564;46.840;18.336;2023-01-08T13:58:49;13.53;65.97
75010;DHT22;63564;46.840;18.336;2023-01-08T14:01:54;13.60;65.34
75010;DHT22;63564;46.840;18.336;2023-01-08T14:04:55;13.69;65.59
75010;DHT22;63564;46.840;18.336;2023-01-08T14:07:56;13.56;65.55
75010;DHT22;63564;46.840;18.336;2023-01-08T14:10:58;13.56;65.68
75010;DHT22;63564;46.840;18.336;2023-01-08T14:13:58;13.50;65.80
75010;DHT22;63564;46.840;18.336;2023-01-08T14:16:59;13.62;64.71
75010;DHT22;63564;46.840;18.336;2023-01-08T14:19:59;13.60;64.31
75010;DHT22;63564;46.840;18.336;2023-01-08T14:23:01;13.54;65.02
75010;DHT22;63564;46.840;18.336;2023-01-08T14:26:04;13.62;64.63
75010;DHT22;63564;46.840;18.336;2023-01-08T14:29:17;13.49;64.98
75010;DHT22;63564;46.840;18.336;2023-01-08T14:32:22;13.60;64.46
75010;DHT22;63564;46.840;18.336;2023-01-08T14:35:27;13.54;65.16
75010;DHT22;63564;46.840;18.336;2023-01-08T14:38:30;13.60;64.69
75010;DHT22;63564;46.840;18.336;2023-01-08T14:41:32;13.62;64.85
75010;DHT22;63564;46.840;18.336;2023-01-08T14:44:59;13.54;65.06
75010;DHT22;63564;46.840;18.336;2023-01-08T14:51:28;13.50;65.29
75010;DHT22;63564;46.840;18.336;2023-01-08T14:54:34;13.49;65.26
75010;DHT22;63564;46.840;18.336;2023-01-08T14:57:35;13.52;65.15
75010;DHT22;63564;46.840;18.336;2023-01-08T15:00:36;13.46;65.27
75010;DHT22;63564;46.840;18.336;2023-01-08T15:03:39;13.42;65.40
75010;DHT22;63564;46.840;18.336;2023-01-08T15:06:40;13.39;65.48
75010;DHT22;63564;46.840;18.336;2023-01-08T15:09:41;13.29;66.00
75010;DHT22;63564;46.840;18.336;2023-01-08T15:12:41;13.20;66.29
75010;DHT22;63564;46.840;18.336;2023-01-08T15:15:52;13.27;65.91
75010;DHT22;63564;46.840;18.336;2023-01-08T15:19:06;13.20;66.21
75010;DHT22;63564;46.840;18.336;2023-01-08T15:22:16;13.22;66.06
75010;DHT22;63564;46.840;18.336;2023-01-08T15:25:24;13.16;66.47
75010;DHT22;63564;46.840;18.336;2023-01-08T15:28:25;13.06;66.78
75010;DHT22;63564;46.840;18.336;2023-01-08T15:34:41;13.05;66.96
75010;DHT22;63564;46.840;18.336;2023-01-08T15:37:41;13.04;66.92
75010;DHT22;63564;46.840;18.336;2023-01-08T15:40:42;13.02;67.10
75010;DHT22;63564;46.840;18.336;2023-01-08T15:43:43;13.02;66.74
75010;DHT22;63564;46.840;18.336;2023-01-08T15:46:44;13.06;66.73
75010;DHT22;63564;46.840;18.336;2023-01-08T15:49:44;12.94;67.37
75010;DHT22;63564;46.840;18.336;2023-01-08T15:52:45;13.05;66.96
75010;DHT22;63564;46.840;18.336;2023-01-08T15:55:45;12.92;67.39
75010;DHT22;63564;46.840;18.336;2023-01-08T15:58:46;12.94;67.44
75010;DHT22;63564;46.840;18.336;2023-01-08T16:01:46;12.89;67.42
75010;DHT22;63564;46.840;18.336;2023-01-08T16:04:51;12.97;66.90
75010;DHT22;63564;46.840;18.336;2023-01-08T16:07:52;12.97;67.15
75010;DHT22;63564;46.840;18.336;2023-01-08T16:10:52;12.95;67.17
75010;DHT22;63564;46.840;18.336;2023-01-08T16:13:53;12.88;67.57
75010;DHT22;63564;46.840;18.336;2023-01-08T16:16:54;12.74;68.46
75010;DHT22;63564;46.840;18.336;2023-01-08T16:19:54;12.77;68.39
75010;DHT22;63564;46.840;18.336;2023-01-08T16:22:55;12.67;68.73
75010;DHT22;63564;46.840;18.336;2023-01-08T16:25:56;12.67;68.81
75010;DHT22;63564;46.840;18.336;2023-01-08T16:28:57;12.61;68.66
75010;DHT22;63564;46.840;18.336;2023-01-08T16:31:57;12.65;68.58
75010;DHT22;63564;46.840;18.336;2023-01-08T16:34:57;12.64;68.43
75010;DHT22;63564;46.840;18.336;2023-01-08T16:37:58;12.70;68.22
75010;DHT22;63564;46.840;18.336;2023-01-08T16:40:59;12.76;68.10
75010;DHT22;63564;46.840;18.336;2023-01-08T16:43:59;12.83;67.72
75010;DHT22;63564;46.840;18.336;2023-01-08T16:47:00;12.78;67.96
75010;DHT22;63564;46.840;18.336;2023-01-08T16:50:01;12.74;68.20
75010;DHT22;63564;46.840;18.336;2023-01-08T16:53:01;12.73;68.17
75010;DHT22;63564;46.840;18.336;2023-01-08T16:56:03;12.76;68.21
75010;DHT22;63564;46.840;18.336;2023-01-08T16:59:03;12.76;68.02
75010;DHT22;63564;46.840;18.336;2023-01-08T17:02:04;12.80;67.85
75010;DHT22;63564;46.840;18.336;2023-01-08T17:05:05;12.74;68.07
75010;DHT22;63564;46.840;18.336;2023-01-08T17:08:06;12.71;68.27
75010;DHT22;63564;46.840;18.336;2023-01-08T17:11:15;12.59;68.98
75010;DHT22;63564;46.840;18.336;2023-01-08T17:14:16;12.23;70.89
75010;DHT22;63564;46.840;18.336;2023-01-08T17:17:17;11.91;72.15
75010;DHT22;63564;46.840;18.336;2023-01-08T17:20:17;11.73;72.73
75010;DHT22;63564;46.840;18.336;2023-01-08T17:23:19;11.63;72.87
75010;DHT22;63564;46.840;18.336;2023-01-08T17:26:19;11.54;73.14
75010;DHT22;63564;46.840;18.336;2023-01-08T17:29:20;11.50;73.22
75010;DHT22;63564;46.840;18.336;2023-01-08T17:32:21;11.44;73.11
75010;DHT22;63564;46.840;18.336;2023-01-08T17:35:21;11.30;73.61
75010;DHT22;63564;46.840;18.336;2023-01-08T17:38:22;11.31;73.57
75010;DHT22;63564;46.840;18.336;2023-01-08T17:41:23;11.22;73.92
75010;DHT22;63564;46.840;18.336;2023-01-08T17:44:42;11.20;74.06
75010;DHT22;63564;46.840;18.336;2023-01-08T17:47:42;11.17;73.90
75010;DHT22;63564;46.840;18.336;2023-01-08T17:50:43;11.15;73.86
75010;DHT22;63564;46.840;18.336;2023-01-08T17:53:46;11.05;74.35
75010;DHT22;63564;46.840;18.336;2023-01-08T17:56:46;10.99;74.51
75010;DHT22;63564;46.840;18.336;2023-01-08T17:59:48;10.89;74.84
75010;DHT22;63564;46.840;18.336;2023-01-08T18:02:49;10.75;75.64
75010;DHT22;63564;46.840;18.336;2023-01-08T18:05:50;10.65;75.93
75010;DHT22;63564;46.840;18.336;2023-01-08T18:08:51;10.51;76.45
75010;DHT22;63564;46.840;18.336;2023-01-08T18:11:51;10.36;77.14
75010;DHT22;63564;46.840;18.336;2023-01-08T18:14:52;10.25;77.41
75010;DHT22;63564;46.840;18.336;2023-01-08T18:17:52;10.30;77.30
75010;DHT22;63564;46.840;18.336;2023-01-08T18:20:52;10.14;77.58
75010;DHT22;63564;46.840;18.336;2023-01-08T18:23:53;10.16;77.65
75010;DHT22;63564;46.840;18.336;2023-01-08T18:26:54;10.16;77.54
75010;DHT22;63564;46.840;18.336;2023-01-08T18:29:55;10.14;77.40
75010;DHT22;63564;46.840;18.336;2023-01-08T18:32:55;10.14;77.34
75010;DHT22;63564;46.840;18.336;2023-01-08T18:36:03;10.30;76.66
75010;DHT22;63564;46.840;18.336;2023-01-08T18:39:05;10.47;75.79
75010;DHT22;63564;46.840;18.336;2023-01-08T18:42:07;10.54;75.74
75010;DHT22;63564;46.840;18.336;2023-01-08T18:45:26;10.65;75.27
75010;DHT22;63564;46.840;18.336;2023-01-08T18:48:28;10.65;74.92
75010;DHT22;63564;46.840;18.336;2023-01-08T18:51:29;10.76;74.61
75010;DHT22;63564;46.840;18.336;2023-01-08T18:54:30;10.93;74.06
75010;DHT22;63564;46.840;18.336;2023-01-08T18:57:31;11.03;73.62
75010;DHT22;63564;46.840;18.336;2023-01-08T19:00:31;11.15;73.26
75010;DHT22;63564;46.840;18.336;2023-01-08T19:03:32;11.15;73.06
75010;DHT22;63564;46.840;18.336;2023-01-08T19:06:33;11.16;73.10
75010;DHT22;63564;46.840;18.336;2023-01-08T19:09:34;11.16;73.00
75010;DHT22;63564;46.840;18.336;2023-01-08T19:12:35;11.10;73.37
75010;DHT22;63564;46.840;18.336;2023-01-08T19:15:37;11.02;73.56
75010;DHT22;63564;46.840;18.336;2023-01-08T19:18:39;10.95;73.86
75010;DHT22;63564;46.840;18.336;2023-01-08T19:21:39;10.93;73.94
75010;DHT22;63564;46.840;18.336;2023-01-08T19:24:40;10.92;73.96
75010;DHT22;63564;46.840;18.336;2023-01-08T19:27:41;10.89;74.09
75010;DHT22;63564;46.840;18.336;2023-01-08T19:30:42;10.81;74.16
75010;DHT22;63564;46.840;18.336;2023-01-08T19:33:44;10.82;74.27
75010;DHT22;63564;46.840;18.336;2023-01-08T19:36:45;10.71;74.71
75010;DHT22;63564;46.840;18.336;2023-01-08T19:39:46;10.71;74.62
75010;DHT22;63564;46.840;18.336;2023-01-08T19:42:47;10.69;74.68
75010;DHT22;63564;46.840;18.336;2023-01-08T19:46:06;10.72;74.47
75010;DHT22;63564;46.840;18.336;2023-01-08T19:49:08;10.75;74.44
75010;DHT22;63564;46.840;18.336;2023-01-08T19:52:08;10.76;74.44
75010;DHT22;63564;46.840;18.336;2023-01-08T19:55:09;10.82;74.15
75010;DHT22;63564;46.840;18.336;2023-01-08T19:58:10;10.81;74.06
75010;DHT22;63564;46.840;18.336;2023-01-08T20:01:17;10.88;73.71
75010;DHT22;63564;46.840;18.336;2023-01-08T20:04:18;10.86;73.86
75010;DHT22;63564;46.840;18.336;2023-01-08T20:07:19;10.88;73.69
75010;DHT22;63564;46.840;18.336;2023-01-08T20:10:20;10.76;74.16
75010;DHT22;63564;46.840;18.336;2023-01-08T20:13:21;10.75;74.20
75010;DHT22;63564;46.840;18.336;2023-01-08T20:16:22;10.78;74.19
75010;DHT22;63564;46.840;18.336;2023-01-08T20:19:23;10.68;74.66
75010;DHT22;63564;46.840;18.336;2023-01-08T20:22:24;10.75;74.40